sensor_id;sensor_type;location;lat;lon;timestamp;P1;durP1;ratioP1;P2;durP2;ratioP2
65009;SDS011;51556;50.002;22.014;2023-09-30T00:00:00;13.20;;;7.90;;
65009;SDS011;51556;50.002;22.014;2023-09-30T00:02:26;13.30;;;8.20;;
65009;SDS011;51556;50.002;22.014;2023-09-30T00:04:52;12.20;;;7.80;;
65009;SDS011;51556;50.002;22.014;2023-09-30T00:07:18;15.00;;;8.40;;
65009;SDS011;51556;50.002;22.014;2023-09-30T00:09:43;13.20;;;7.90;;
65009;SDS011;51556;50.002;22.014;2023-09-30T00:12:08;14.90;;;8.40;;
65009;SDS011;51556;50.002;22.014;2023-09-30T00:14:34;14.90;;;8.40;;
65009;SDS011;51556;50.002;22.014;2023-09-30T00:17:01;12.50;;;7.70;;
65009;SDS011;51556;50.002;22.014;2023-09-30T00:19:27;13.30;;;7.90;;
65009;SDS011;51556;50.002;22.014;2023-09-30T00:21:52;14.10;;;8.20;;
65009;SDS011;51556;50.002;22.014;2023-09-30T00:24:17;15.90;;;8.80;;
65009;SDS011;51556;50.002;22.014;2023-09-30T00:26:43;15.60;;;8.00;;
65009;SDS011;51556;50.002;22.014;2023-09-30T00:29:08;19.20;;;7.80;;
65009;SDS011;51556;50.002;22.014;2023-09-30T00:31:35;11.00;;;7.60;;
65009;SDS011;51556;50.002;22.014;2023-09-30T00:34:01;13.50;;;7.90;;
65009;SDS011;51556;50.002;22.014;2023-09-30T00:36:26;12.50;;;7.20;;
65009;SDS011;51556;50.002;22.014;2023-09-30T00:38:52;13.00;;;8.60;;
65009;SDS011;51556;50.002;22.014;2023-09-30T00:41:17;14.90;;;8.20;;
65009;SDS011;51556;50.002;22.014;2023-09-30T00:43:45;15.00;;;7.40;;
65009;SDS011;51556;50.002;22.014;2023-09-30T00:48:49;12.80;;;7.50;;
65009;SDS011;51556;50.002;22.014;2023-09-30T00:51:14;12.30;;;8.00;;
65009;SDS011;51556;50.002;22.014;2023-09-30T00:53:40;16.60;;;8.10;;
65009;SDS011;51556;50.002;22.014;2023-09-30T00:56:06;13.90;;;8.00;;
65009;SDS011;51556;50.002;22.014;2023-09-30T00:58:31;12.40;;;7.90;;
65009;SDS011;51556;50.002;22.014;2023-09-30T01:00:59;16.90;;;8.40;;
65009;SDS011;51556;50.002;22.014;2023-09-30T01:03:24;14.20;;;7.90;;
65009;SDS011;51556;50.002;22.014;2023-09-30T01:05:50;12.30;;;7.30;;
65009;SDS011;51556;50.002;22.014;2023-09-30T01:08:16;13.50;;;7.50;;
65009;SDS011;51556;50.002;22.014;2023-09-30T01:10:42;12.10;;;7.60;;
65009;SDS011;51556;50.002;22.014;2023-09-30T01:13:09;13.00;;;7.60;;
65009;SDS011;51556;50.002;22.014;2023-09-30T01:15:34;15.80;;;8.40;;
65009;SDS011;51556;50.002;22.014;2023-09-30T01:18:02;10.30;;;7.70;;
65009;SDS011;51556;50.002;22.014;2023-09-30T01:20:28;11.10;;;7.20;;
65009;SDS011;51556;50.002;22.014;2023-09-30T01:22:53;12.60;;;7.40;;
65009;SDS011;51556;50.002;22.014;2023-09-30T01:25:21;11.50;;;7.60;;
65009;SDS011;51556;50.002;22.014;2023-09-30T01:27:47;10.30;;;7.50;;
65009;SDS011;51556;50.002;22.014;2023-09-30T01:30:12;10.40;;;7.50;;
65009;SDS011;51556;50.002;22.014;2023-09-30T01:32:39;13.00;;;7.50;;
65009;SDS011;51556;50.002;22.014;2023-09-30T01:35:05;12.80;;;7.80;;
65009;SDS011;51556;50.002;22.014;2023-09-30T01:37:31;11.00;;;7.50;;
65009;SDS011;51556;50.002;22.014;2023-09-30T01:39:56;15.50;;;7.70;;
65009;SDS011;51556;50.002;22.014;2023-09-30T01:42:22;12.60;;;7.40;;
65009;SDS011;51556;50.002;22.014;2023-09-30T01:44:47;12.80;;;7.10;;
65009;SDS011;51556;50.002;22.014;2023-09-30T01:47:13;12.30;;;7.50;;
65009;SDS011;51556;50.002;22.014;2023-09-30T01:49:38;10.40;;;7.30;;
65009;SDS011;51556;50.002;22.014;2023-09-30T01:52:03;14.60;;;7.40;;
65009;SDS011;51556;50.002;22.014;2023-09-30T01:54:29;14.00;;;7.80;;
65009;SDS011;51556;50.002;22.014;2023-09-30T01:56:54;11.40;;;7.10;;
65009;SDS011;51556;50.002;22.014;2023-09-30T01:59:20;11.40;;;7.10;;
65009;SDS011;51556;50.002;22.014;2023-09-30T02:01:46;11.10;;;7.00;;
65009;SDS011;51556;50.002;22.014;2023-09-30T02:04:12;15.10;;;8.00;;
65009;SDS011;51556;50.002;22.014;2023-09-30T02:06:40;11.00;;;7.30;;
65009;SDS011;51556;50.002;22.014;2023-09-30T02:09:06;13.20;;;6.90;;
65009;SDS011;51556;50.002;22.014;2023-09-30T02:11:33;12.20;;;7.10;;
65009;SDS011;51556;50.002;22.014;2023-09-30T02:13:59;14.20;;;7.10;;
65009;SDS011;51556;50.002;22.014;2023-09-30T02:16:25;9.50;;;7.10;;
65009;SDS011;51556;50.002;22.014;2023-09-30T02:18:52;12.00;;;7.00;;
65009;SDS011;51556;50.002;22.014;2023-09-30T02:21:18;10.80;;;6.50;;
65009;SDS011;51556;50.002;22.014;2023-09-30T02:23:43;10.30;;;6.90;;
65009;SDS011;51556;50.002;22.014;2023-09-30T02:26:13;11.10;;;6.70;;
65009;SDS011;51556;50.002;22.014;2023-09-30T02:28:39;11.40;;;6.90;;
65009;SDS011;51556;50.002;22.014;2023-09-30T02:31:05;13.90;;;6.90;;
65009;SDS011;51556;50.002;22.014;2023-09-30T02:33:32;14.70;;;6.90;;
65009;SDS011;51556;50.002;22.014;2023-09-30T02:36:00;8.40;;;6.30;;
65009;SDS011;51556;50.002;22.014;2023-09-30T02:38:26;9.90;;;6.50;;
65009;SDS011;51556;50.002;22.014;2023-09-30T02:40:51;12.60;;;7.20;;
65009;SDS011;51556;50.002;22.014;2023-09-30T02:43:17;12.60;;;7.10;;
65009;SDS011;51556;50.002;22.014;2023-09-30T02:45:42;10.90;;;7.50;;
65009;SDS011;51556;50.002;22.014;2023-09-30T02:48:08;14.60;;;7.70;;
65009;SDS011;51556;50.002;22.014;2023-09-30T02:50:34;10.80;;;7.00;;
65009;SDS011;51556;50.002;22.014;2023-09-30T02:53:00;11.10;;;6.80;;
65009;SDS011;51556;50.002;22.014;2023-09-30T02:55:25;11.30;;;6.80;;
65009;SDS011;51556;50.002;22.014;2023-09-30T02:57:51;9.20;;;6.40;;
65009;SDS011;51556;50.002;22.014;2023-09-30T03:00:18;10.90;;;6.90;;
65009;SDS011;51556;50.002;22.014;2023-09-30T03:02:51;11.80;;;6.60;;
65009;SDS011;51556;50.002;22.014;2023-09-30T03:05:21;9.60;;;6.00;;
65009;SDS011;51556;50.002;22.014;2023-09-30T03:07:47;7.90;;;6.20;;
65009;SDS011;51556;50.002;22.014;2023-09-30T03:10:15;10.70;;;6.40;;
65009;SDS011;51556;50.002;22.014;2023-09-30T03:12:45;12.00;;;6.70;;
65009;SDS011;51556;50.002;22.014;2023-09-30T03:15:12;9.50;;;6.40;;
65009;SDS011;51556;50.002;22.014;2023-09-30T03:17:38;11.40;;;6.50;;
65009;SDS011;51556;50.002;22.014;2023-09-30T03:20:03;11.20;;;6.90;;
65009;SDS011;51556;50.002;22.014;2023-09-30T03:22:43;11.80;;;6.80;;
65009;SDS011;51556;50.002;22.014;2023-09-30T03:25:12;13.40;;;6.80;;
65009;SDS011;51556;50.002;22.014;2023-09-30T03:27:40;12.50;;;7.60;;
65009;SDS011;51556;50.002;22.014;2023-09-30T03:30:06;10.20;;;6.60;;
65009;SDS011;51556;50.002;22.014;2023-09-30T03:32:33;10.90;;;7.00;;
65009;SDS011;51556;50.002;22.014;2023-09-30T03:35:03;9.70;;;6.70;;
65009;SDS011;51556;50.002;22.014;2023-09-30T03:37:31;15.30;;;7.00;;
65009;SDS011;51556;50.002;22.014;2023-09-30T03:39:57;10.80;;;6.30;;
65009;SDS011;51556;50.002;22.014;2023-09-30T03:42:22;10.10;;;6.20;;
65009;SDS011;51556;50.002;22.014;2023-09-30T03:44:48;9.30;;;6.00;;
65009;SDS011;51556;50.002;22.014;2023-09-30T03:47:14;13.70;;;6.20;;
65009;SDS011;51556;50.002;22.014;2023-09-30T03:49:40;10.60;;;5.90;;
65009;SDS011;51556;50.002;22.014;2023-09-30T03:52:07;13.80;;;6.90;;
65009;SDS011;51556;50.002;22.014;2023-09-30T03:54:33;9.00;;;6.70;;
65009;SDS011;51556;50.002;22.014;2023-09-30T03:56:59;8.00;;;6.10;;
65009;SDS011;51556;50.002;22.014;2023-09-30T03:59:25;11.50;;;6.50;;
65009;SDS011;51556;50.002;22.014;2023-09-30T04:01:51;16.00;;;6.70;;
65009;SDS011;51556;50.002;22.014;2023-09-30T04:04:19;11.10;;;6.10;;
65009;SDS011;51556;50.002;22.014;2023-09-30T04:06:46;10.10;;;6.20;;
65009;SDS011;51556;50.002;22.014;2023-09-30T04:09:15;9.90;;;6.50;;
65009;SDS011;51556;50.002;22.014;2023-09-30T04:11:41;10.70;;;6.90;;
65009;SDS011;51556;50.002;22.014;2023-09-30T04:14:07;10.90;;;7.40;;
65009;SDS011;51556;50.002;22.014;2023-09-30T04:16:33;11.50;;;7.30;;
65009;SDS011;51556;50.002;22.014;2023-09-30T04:19:00;10.10;;;6.40;;
65009;SDS011;51556;50.002;22.014;2023-09-30T04:21:26;13.80;;;6.80;;
65009;SDS011;51556;50.002;22.014;2023-09-30T04:23:54;11.90;;;7.30;;
65009;SDS011;51556;50.002;22.014;2023-09-30T04:26:21;12.70;;;6.80;;
65009;SDS011;51556;50.002;22.014;2023-09-30T04:28:46;14.60;;;6.50;;
65009;SDS011;51556;50.002;22.014;2023-09-30T04:31:12;9.10;;;6.40;;
65009;SDS011;51556;50.002;22.014;2023-09-30T04:33:38;8.80;;;6.60;;
65009;SDS011;51556;50.002;22.014;2023-09-30T04:36:05;15.90;;;6.20;;
65009;SDS011;51556;50.002;22.014;2023-09-30T04:38:33;12.40;;;6.90;;
65009;SDS011;51556;50.002;22.014;2023-09-30T04:40:59;8.80;;;6.50;;
65009;SDS011;51556;50.002;22.014;2023-09-30T04:43:25;10.10;;;6.00;;
65009;SDS011;51556;50.002;22.014;2023-09-30T04:45:54;9.60;;;6.40;;
65009;SDS011;51556;50.002;22.014;2023-09-30T04:48:22;11.80;;;6.30;;
65009;SDS011;51556;50.002;22.014;2023-09-30T04:50:48;8.60;;;6.70;;
65009;SDS011;51556;50.002;22.014;2023-09-30T04:53:14;13.70;;;6.20;;
65009;SDS011;51556;50.002;22.014;2023-09-30T04:55:42;8.30;;;5.60;;
65009;SDS011;51556;50.002;22.014;2023-09-30T04:58:07;9.60;;;6.30;;
65009;SDS011;51556;50.002;22.014;2023-09-30T05:00:33;12.80;;;6.80;;
65009;SDS011;51556;50.002;22.014;2023-09-30T05:03:00;9.60;;;6.00;;
65009;SDS011;51556;50.002;22.014;2023-09-30T05:05:26;8.70;;;5.90;;
65009;SDS011;51556;50.002;22.014;2023-09-30T05:07:51;9.80;;;6.50;;
65009;SDS011;51556;50.002;22.014;2023-09-30T05:10:16;8.80;;;5.90;;
65009;SDS011;51556;50.002;22.014;2023-09-30T05:12:43;10.00;;;5.80;;
65009;SDS011;51556;50.002;22.014;2023-09-30T05:15:11;13.10;;;6.00;;
65009;SDS011;51556;50.002;22.014;2023-09-30T05:17:41;9.20;;;6.00;;
65009;SDS011;51556;50.002;22.014;2023-09-30T05:20:09;6.50;;;5.60;;
65009;SDS011;51556;50.002;22.014;2023-09-30T05:22:38;12.40;;;6.00;;
65009;SDS011;51556;50.002;22.014;2023-09-30T05:25:10;7.10;;;5.70;;
65009;SDS011;51556;50.002;22.014;2023-09-30T05:27:36;10.90;;;6.30;;
65009;SDS011;51556;50.002;22.014;2023-09-30T05:30:01;12.20;;;6.70;;
65009;SDS011;51556;50.002;22.014;2023-09-30T05:32:27;7.70;;;6.10;;
65009;SDS011;51556;50.002;22.014;2023-09-30T05:34:52;9.80;;;6.30;;
65009;SDS011;51556;50.002;22.014;2023-09-30T05:37:19;9.00;;;6.50;;
65009;SDS011;51556;50.002;22.014;2023-09-30T05:39:46;10.20;;;6.40;;
65009;SDS011;51556;50.002;22.014;2023-09-30T05:42:14;12.30;;;6.10;;
65009;SDS011;51556;50.002;22.014;2023-09-30T05:44:40;11.40;;;6.20;;
65009;SDS011;51556;50.002;22.014;2023-09-30T05:47:06;10.40;;;6.50;;
65009;SDS011;51556;50.002;22.014;2023-09-30T05:49:31;12.10;;;5.80;;
65009;SDS011;51556;50.002;22.014;2023-09-30T05:51:57;8.40;;;5.20;;
65009;SDS011;51556;50.002;22.014;2023-09-30T05:54:22;11.30;;;5.90;;
65009;SDS011;51556;50.002;22.014;2023-09-30T05:56:48;10.00;;;6.30;;
65009;SDS011;51556;50.002;22.014;2023-09-30T05:59:14;14.30;;;6.20;;
65009;SDS011;51556;50.002;22.014;2023-09-30T06:01:39;8.90;;;6.20;;
65009;SDS011;51556;50.002;22.014;2023-09-30T06:04:06;8.90;;;6.10;;
65009;SDS011;51556;50.002;22.014;2023-09-30T06:06:31;9.70;;;6.00;;
65009;SDS011;51556;50.002;22.014;2023-09-30T06:08:57;10.20;;;6.20;;
65009;SDS011;51556;50.002;22.014;2023-09-30T06:11:23;9.40;;;5.60;;
65009;SDS011;51556;50.002;22.014;2023-09-30T06:13:50;9.80;;;6.10;;
65009;SDS011;51556;50.002;22.014;2023-09-30T06:16:24;12.30;;;5.80;;
65009;SDS011;51556;50.002;22.014;2023-09-30T06:18:51;9.70;;;6.10;;
65009;SDS011;51556;50.002;22.014;2023-09-30T06:21:17;12.20;;;6.80;;
65009;SDS011;51556;50.002;22.014;2023-09-30T06:23:46;9.50;;;5.60;;
65009;SDS011;51556;50.002;22.014;2023-09-30T06:26:12;10.90;;;6.50;;
65009;SDS011;51556;50.002;22.014;2023-09-30T06:28:38;8.70;;;5.70;;
65009;SDS011;51556;50.002;22.014;2023-09-30T06:31:09;9.80;;;5.60;;
65009;SDS011;51556;50.002;22.014;2023-09-30T06:33:38;13.30;;;5.90;;
65009;SDS011;51556;50.002;22.014;2023-09-30T06:36:11;8.00;;;6.00;;
65009;SDS011;51556;50.002;22.014;2023-09-30T06:38:40;12.40;;;5.90;;
65009;SDS011;51556;50.002;22.014;2023-09-30T06:41:14;9.90;;;6.00;;
65009;SDS011;51556;50.002;22.014;2023-09-30T06:43:41;10.50;;;5.80;;
65009;SDS011;51556;50.002;22.014;2023-09-30T06:46:06;8.00;;;5.90;;
65009;SDS011;51556;50.002;22.014;2023-09-30T06:48:35;9.40;;;5.30;;
65009;SDS011;51556;50.002;22.014;2023-09-30T06:51:01;10.50;;;6.30;;
65009;SDS011;51556;50.002;22.014;2023-09-30T06:53:27;8.90;;;5.70;;
65009;SDS011;51556;50.002;22.014;2023-09-30T06:55:53;11.50;;;6.40;;
65009;SDS011;51556;50.002;22.014;2023-09-30T06:58:19;9.40;;;5.40;;
65009;SDS011;51556;50.002;22.014;2023-09-30T07:00:49;10.30;;;5.70;;
65009;SDS011;51556;50.002;22.014;2023-09-30T07:03:20;12.90;;;6.60;;
65009;SDS011;51556;50.002;22.014;2023-09-30T07:05:46;8.60;;;6.10;;
65009;SDS011;51556;50.002;22.014;2023-09-30T07:08:14;12.50;;;5.90;;
65009;SDS011;51556;50.002;22.014;2023-09-30T07:10:41;10.40;;;5.80;;
65009;SDS011;51556;50.002;22.014;2023-09-30T07:13:07;10.10;;;6.10;;
65009;SDS011;51556;50.002;22.014;2023-09-30T07:15:32;10.80;;;5.70;;
65009;SDS011;51556;50.002;22.014;2023-09-30T07:17:58;10.00;;;5.60;;
65009;SDS011;51556;50.002;22.014;2023-09-30T07:20:23;13.90;;;6.30;;
65009;SDS011;51556;50.002;22.014;2023-09-30T07:22:48;8.00;;;5.20;;
65009;SDS011;51556;50.002;22.014;2023-09-30T07:25:14;9.60;;;6.60;;
65009;SDS011;51556;50.002;22.014;2023-09-30T07:27:42;9.50;;;6.10;;
65009;SDS011;51556;50.002;22.014;2023-09-30T07:30:08;9.60;;;6.10;;
65009;SDS011;51556;50.002;22.014;2023-09-30T07:32:35;8.30;;;5.60;;
65009;SDS011;51556;50.002;22.014;2023-09-30T07:35:00;12.30;;;5.60;;
65009;SDS011;51556;50.002;22.014;2023-09-30T07:37:26;8.80;;;5.80;;
65009;SDS011;51556;50.002;22.014;2023-09-30T07:39:52;10.70;;;5.50;;
65009;SDS011;51556;50.002;22.014;2023-09-30T07:42:17;11.00;;;6.20;;
65009;SDS011;51556;50.002;22.014;2023-09-30T07:44:43;10.70;;;5.10;;
65009;SDS011;51556;50.002;22.014;2023-09-30T07:47:08;9.40;;;6.20;;
65009;SDS011;51556;50.002;22.014;2023-09-30T07:49:38;7.40;;;5.50;;
65009;SDS011;51556;50.002;22.014;2023-09-30T07:52:04;9.00;;;5.80;;
65009;SDS011;51556;50.002;22.014;2023-09-30T07:54:29;8.70;;;6.10;;
65009;SDS011;51556;50.002;22.014;2023-09-30T07:56:54;10.60;;;6.00;;
65009;SDS011;51556;50.002;22.014;2023-09-30T07:59:20;9.40;;;6.00;;
65009;SDS011;51556;50.002;22.014;2023-09-30T08:01:47;9.00;;;5.40;;
65009;SDS011;51556;50.002;22.014;2023-09-30T08:04:13;11.20;;;6.10;;
65009;SDS011;51556;50.002;22.014;2023-09-30T08:06:38;10.00;;;5.80;;
65009;SDS011;51556;50.002;22.014;2023-09-30T08:09:04;7.70;;;5.60;;
65009;SDS011;51556;50.002;22.014;2023-09-30T08:11:35;10.60;;;5.60;;
65009;SDS011;51556;50.002;22.014;2023-09-30T08:14:02;8.80;;;5.50;;
65009;SDS011;51556;50.002;22.014;2023-09-30T08:16:35;8.50;;;5.50;;
65009;SDS011;51556;50.002;22.014;2023-09-30T08:19:03;8.70;;;5.70;;
65009;SDS011;51556;50.002;22.014;2023-09-30T08:21:30;10.40;;;5.50;;
65009;SDS011;51556;50.002;22.014;2023-09-30T08:23:56;13.20;;;5.10;;
65009;SDS011;51556;50.002;22.014;2023-09-30T08:26:22;7.90;;;5.10;;
65009;SDS011;51556;50.002;22.014;2023-09-30T08:28:48;8.10;;;5.70;;
65009;SDS011;51556;50.002;22.014;2023-09-30T08:31:13;8.90;;;5.80;;
65009;SDS011;51556;50.002;22.014;2023-09-30T08:33:39;8.80;;;5.30;;
65009;SDS011;51556;50.002;22.014;2023-09-30T08:36:06;10.30;;;5.50;;
65009;SDS011;51556;50.002;22.014;2023-09-30T08:38:36;8.70;;;5.20;;
65009;SDS011;51556;50.002;22.014;2023-09-30T08:41:02;9.70;;;4.90;;
65009;SDS011;51556;50.002;22.014;2023-09-30T08:43:28;10.30;;;5.30;;
65009;SDS011;51556;50.002;22.014;2023-09-30T08:45:57;9.60;;;5.60;;
65009;SDS011;51556;50.002;22.014;2023-09-30T08:48:26;9.90;;;5.90;;
65009;SDS011;51556;50.002;22.014;2023-09-30T08:50:53;8.00;;;5.60;;
65009;SDS011;51556;50.002;22.014;2023-09-30T08:53:23;11.80;;;5.70;;
65009;SDS011;51556;50.002;22.014;2023-09-30T08:55:52;9.50;;;5.40;;
65009;SDS011;51556;50.002;22.014;2023-09-30T08:58:26;8.70;;;5.30;;
65009;SDS011;51556;50.002;22.014;2023-09-30T09:01:17;8.80;;;5.00;;
65009;SDS011;51556;50.002;22.014;2023-09-30T09:03:43;8.90;;;5.70;;
65009;SDS011;51556;50.002;22.014;2023-09-30T09:06:08;9.70;;;5.40;;
65009;SDS011;51556;50.002;22.014;2023-09-30T09:08:34;10.80;;;5.80;;
65009;SDS011;51556;50.002;22.014;2023-09-30T09:10:59;9.90;;;4.80;;
65009;SDS011;51556;50.002;22.014;2023-09-30T09:13:26;8.00;;;4.90;;
65009;SDS011;51556;50.002;22.014;2023-09-30T09:16:08;8.20;;;4.70;;
65009;SDS011;51556;50.002;22.014;2023-09-30T09:18:34;7.70;;;4.90;;
65009;SDS011;51556;50.002;22.014;2023-09-30T09:21:13;9.30;;;5.00;;
65009;SDS011;51556;50.002;22.014;2023-09-30T09:23:49;12.10;;;5.40;;
65009;SDS011;51556;50.002;22.014;2023-09-30T09:26:23;13.90;;;6.20;;
65009;SDS011;51556;50.002;22.014;2023-09-30T09:28:50;7.90;;;5.30;;
65009;SDS011;51556;50.002;22.014;2023-09-30T09:31:22;10.40;;;5.70;;
65009;SDS011;51556;50.002;22.014;2023-09-30T09:33:49;9.30;;;5.20;;
65009;SDS011;51556;50.002;22.014;2023-09-30T09:36:15;9.20;;;5.80;;
65009;SDS011;51556;50.002;22.014;2023-09-30T09:38:50;10.90;;;6.20;;
65009;SDS011;51556;50.002;22.014;2023-09-30T09:41:21;8.80;;;5.60;;
65009;SDS011;51556;50.002;22.014;2023-09-30T09:43:50;11.00;;;6.00;;
65009;SDS011;51556;50.002;22.014;2023-09-30T09:46:16;11.10;;;6.30;;
65009;SDS011;51556;50.002;22.014;2023-09-30T09:48:42;10.50;;;6.60;;
65009;SDS011;51556;50.002;22.014;2023-09-30T09:51:11;11.30;;;6.20;;
65009;SDS011;51556;50.002;22.014;2023-09-30T09:53:39;8.30;;;5.20;;
65009;SDS011;51556;50.002;22.014;2023-09-30T09:56:09;8.60;;;6.30;;
65009;SDS011;51556;50.002;22.014;2023-09-30T09:58:36;10.30;;;6.30;;
65009;SDS011;51556;50.002;22.014;2023-09-30T10:01:07;9.60;;;6.00;;
65009;SDS011;51556;50.002;22.014;2023-09-30T10:03:35;11.30;;;6.30;;
65009;SDS011;51556;50.002;22.014;2023-09-30T10:06:01;13.90;;;6.00;;
65009;SDS011;51556;50.002;22.014;2023-09-30T10:08:29;14.10;;;5.90;;
65009;SDS011;51556;50.002;22.014;2023-09-30T10:10:58;9.80;;;5.90;;
65009;SDS011;51556;50.002;22.014;2023-09-30T10:21:33;8.90;;;6.10;;
65009;SDS011;51556;50.002;22.014;2023-09-30T10:35:15;13.10;;;6.40;;
65009;SDS011;51556;50.002;22.014;2023-09-30T10:40:49;7.70;;;5.70;;
65009;SDS011;51556;50.002;22.014;2023-09-30T10:43:31;11.20;;;6.40;;
65009;SDS011;51556;50.002;22.014;2023-09-30T10:46:01;11.30;;;6.30;;
65009;SDS011;51556;50.002;22.014;2023-09-30T10:48:46;11.20;;;6.90;;
65009;SDS011;51556;50.002;22.014;2023-09-30T10:51:13;10.30;;;7.60;;
65009;SDS011;51556;50.002;22.014;2023-09-30T10:53:44;10.20;;;7.00;;
65009;SDS011;51556;50.002;22.014;2023-09-30T10:56:11;10.50;;;6.90;;
65009;SDS011;51556;50.002;22.014;2023-09-30T11:03:47;12.70;;;7.30;;
65009;SDS011;51556;50.002;22.014;2023-09-30T11:06:18;12.80;;;8.00;;
65009;SDS011;51556;50.002;22.014;2023-09-30T11:08:53;12.80;;;8.20;;
65009;SDS011;51556;50.002;22.014;2023-09-30T11:14:03;10.70;;;7.10;;
65009;SDS011;51556;50.002;22.014;2023-09-30T11:16:40;14.50;;;8.10;;
65009;SDS011;51556;50.002;22.014;2023-09-30T11:19:06;16.90;;;8.80;;
65009;SDS011;51556;50.002;22.014;2023-09-30T11:21:33;14.30;;;8.30;;
65009;SDS011;51556;50.002;22.014;2023-09-30T11:24:00;14.70;;;9.20;;
65009;SDS011;51556;50.002;22.014;2023-09-30T11:26:31;14.00;;;8.20;;
65009;SDS011;51556;50.002;22.014;2023-09-30T11:29:04;15.70;;;8.90;;
65009;SDS011;51556;50.002;22.014;2023-09-30T11:31:36;12.10;;;8.10;;
65009;SDS011;51556;50.002;22.014;2023-09-30T11:34:02;16.10;;;7.70;;
65009;SDS011;51556;50.002;22.014;2023-09-30T11:36:29;13.60;;;7.50;;
65009;SDS011;51556;50.002;22.014;2023-09-30T11:38:56;13.70;;;8.00;;
65009;SDS011;51556;50.002;22.014;2023-09-30T11:41:22;14.30;;;8.40;;
65009;SDS011;51556;50.002;22.014;2023-09-30T11:44:06;14.30;;;8.70;;
65009;SDS011;51556;50.002;22.014;2023-09-30T11:49:35;17.10;;;8.00;;
65009;SDS011;51556;50.002;22.014;2023-09-30T11:52:08;14.20;;;8.00;;
65009;SDS011;51556;50.002;22.014;2023-09-30T11:57:09;17.20;;;8.10;;
65009;SDS011;51556;50.002;22.014;2023-09-30T11:59:36;12.40;;;8.00;;
65009;SDS011;51556;50.002;22.014;2023-09-30T12:02:03;11.90;;;8.10;;
65009;SDS011;51556;50.002;22.014;2023-09-30T12:04:31;11.90;;;8.20;;
65009;SDS011;51556;50.002;22.014;2023-09-30T12:06:56;15.20;;;7.20;;
65009;SDS011;51556;50.002;22.014;2023-09-30T12:09:22;12.70;;;7.40;;
65009;SDS011;51556;50.002;22.014;2023-09-30T12:11:51;13.40;;;7.90;;
65009;SDS011;51556;50.002;22.014;2023-09-30T12:14:17;11.90;;;8.00;;
65009;SDS011;51556;50.002;22.014;2023-09-30T12:16:42;13.40;;;8.30;;
65009;SDS011;51556;50.002;22.014;2023-09-30T12:19:10;16.80;;;9.10;;
65009;SDS011;51556;50.002;22.014;2023-09-30T12:21:38;15.10;;;8.90;;
65009;SDS011;51556;50.002;22.014;2023-09-30T12:24:05;15.90;;;9.10;;
65009;SDS011;51556;50.002;22.014;2023-09-30T12:26:32;16.80;;;9.50;;
65009;SDS011;51556;50.002;22.014;2023-09-30T12:28:58;13.10;;;9.20;;
65009;SDS011;51556;50.002;22.014;2023-09-30T12:31:23;14.90;;;7.60;;
65009;SDS011;51556;50.002;22.014;2023-09-30T12:33:49;15.50;;;8.80;;
65009;SDS011;51556;50.002;22.014;2023-09-30T12:36:15;13.80;;;8.80;;
65009;SDS011;51556;50.002;22.014;2023-09-30T12:38:41;15.80;;;9.40;;
65009;SDS011;51556;50.002;22.014;2023-09-30T12:41:07;14.00;;;8.60;;
65009;SDS011;51556;50.002;22.014;2023-09-30T12:43:33;14.50;;;9.00;;
65009;SDS011;51556;50.002;22.014;2023-09-30T12:46:00;13.50;;;9.00;;
65009;SDS011;51556;50.002;22.014;2023-09-30T12:48:26;13.90;;;9.70;;
65009;SDS011;51556;50.002;22.014;2023-09-30T12:50:51;16.00;;;9.80;;
65009;SDS011;51556;50.002;22.014;2023-09-30T12:53:17;14.80;;;10.10;;
65009;SDS011;51556;50.002;22.014;2023-09-30T12:55:42;19.20;;;9.80;;
65009;SDS011;51556;50.002;22.014;2023-09-30T12:58:08;16.30;;;9.50;;
65009;SDS011;51556;50.002;22.014;2023-09-30T13:00:34;15.10;;;8.80;;
65009;SDS011;51556;50.002;22.014;2023-09-30T13:03:01;15.60;;;9.40;;
65009;SDS011;51556;50.002;22.014;2023-09-30T13:05:27;11.90;;;8.00;;
65009;SDS011;51556;50.002;22.014;2023-09-30T13:07:54;14.20;;;9.20;;
65009;SDS011;51556;50.002;22.014;2023-09-30T13:10:21;14.70;;;8.90;;
65009;SDS011;51556;50.002;22.014;2023-09-30T13:12:47;15.90;;;8.90;;
65009;SDS011;51556;50.002;22.014;2023-09-30T13:15:15;13.90;;;8.60;;
65009;SDS011;51556;50.002;22.014;2023-09-30T13:17:44;14.10;;;8.90;;
65009;SDS011;51556;50.002;22.014;2023-09-30T13:20:10;12.40;;;8.70;;
65009;SDS011;51556;50.002;22.014;2023-09-30T13:22:39;14.40;;;8.90;;
65009;SDS011;51556;50.002;22.014;2023-09-30T13:25:05;13.10;;;8.70;;
65009;SDS011;51556;50.002;22.014;2023-09-30T13:27:33;12.70;;;8.80;;
65009;SDS011;51556;50.002;22.014;2023-09-30T13:29:59;14.40;;;8.80;;
65009;SDS011;51556;50.002;22.014;2023-09-30T13:32:25;14.70;;;9.60;;
65009;SDS011;51556;50.002;22.014;2023-09-30T13:34:50;14.60;;;8.80;;
65009;SDS011;51556;50.002;22.014;2023-09-30T13:37:16;12.20;;;8.80;;
65009;SDS011;51556;50.002;22.014;2023-09-30T13:39:42;13.20;;;8.90;;
65009;SDS011;51556;50.002;22.014;2023-09-30T13:42:07;11.70;;;9.10;;
65009;SDS011;51556;50.002;22.014;2023-09-30T13:44:33;11.90;;;8.60;;
65009;SDS011;51556;50.002;22.014;2023-09-30T13:47:01;13.90;;;8.90;;
65009;SDS011;51556;50.002;22.014;2023-09-30T13:49:27;14.50;;;9.20;;
65009;SDS011;51556;50.002;22.014;2023-09-30T13:51:53;16.00;;;9.50;;
65009;SDS011;51556;50.002;22.014;2023-09-30T13:54:18;13.90;;;9.70;;
65009;SDS011;51556;50.002;22.014;2023-09-30T13:56:44;14.40;;;10.10;;
65009;SDS011;51556;50.002;22.014;2023-09-30T13:59:09;14.90;;;9.40;;
65009;SDS011;51556;50.002;22.014;2023-09-30T14:01:35;16.60;;;9.70;;
65009;SDS011;51556;50.002;22.014;2023-09-30T14:04:01;19.90;;;10.70;;
65009;SDS011;51556;50.002;22.014;2023-09-30T14:06:29;16.00;;;10.40;;
65009;SDS011;51556;50.002;22.014;2023-09-30T14:08:55;19.10;;;11.60;;
65009;SDS011;51556;50.002;22.014;2023-09-30T14:11:20;18.50;;;11.20;;
65009;SDS011;51556;50.002;22.014;2023-09-30T14:13:46;20.10;;;10.70;;
65009;SDS011;51556;50.002;22.014;2023-09-30T14:16:11;14.40;;;10.00;;
65009;SDS011;51556;50.002;22.014;2023-09-30T14:18:37;15.80;;;10.10;;
65009;SDS011;51556;50.002;22.014;2023-09-30T14:21:04;17.10;;;10.50;;
65009;SDS011;51556;50.002;22.014;2023-09-30T14:23:30;15.60;;;11.00;;
65009;SDS011;51556;50.002;22.014;2023-09-30T14:25:56;15.70;;;10.80;;
65009;SDS011;51556;50.002;22.014;2023-09-30T14:28:21;15.60;;;11.10;;
65009;SDS011;51556;50.002;22.014;2023-09-30T14:30:47;14.10;;;10.90;;
65009;SDS011;51556;50.002;22.014;2023-09-30T14:33:15;19.60;;;11.20;;
65009;SDS011;51556;50.002;22.014;2023-09-30T14:35:41;16.30;;;10.80;;
65009;SDS011;51556;50.002;22.014;2023-09-30T14:38:09;20.20;;;12.80;;
65009;SDS011;51556;50.002;22.014;2023-09-30T14:40:37;17.60;;;12.60;;
65009;SDS011;51556;50.002;22.014;2023-09-30T14:43:04;17.90;;;11.70;;
65009;SDS011;51556;50.002;22.014;2023-09-30T14:45:30;18.90;;;12.50;;
65009;SDS011;51556;50.002;22.014;2023-09-30T14:47:56;19.20;;;12.00;;
65009;SDS011;51556;50.002;22.014;2023-09-30T14:50:22;16.80;;;12.10;;
65009;SDS011;51556;50.002;22.014;2023-09-30T14:52:47;18.00;;;13.80;;
65009;SDS011;51556;50.002;22.014;2023-09-30T14:55:12;17.50;;;13.40;;
65009;SDS011;51556;50.002;22.014;2023-09-30T14:57:38;20.90;;;12.70;;
65009;SDS011;51556;50.002;22.014;2023-09-30T15:00:03;18.90;;;12.20;;